createdAt,value
2023-01-29T00:01:57.929Z,54.60
2023-01-29T00:04:25.179Z,54.50
2023-01-29T00:06:52.005Z,54.80
2023-01-29T00:09:19.199Z,54.70
2023-01-29T00:11:46.112Z,54.40
2023-01-29T00:14:13.734Z,54.60
2023-01-29T00:16:40.560Z,54.70
2023-01-29T00:19:07.408Z,54.80
2023-01-29T00:21:34.730Z,54.80
2023-01-29T00:24:01.764Z,54.50
2023-01-29T00:26:28.872Z,54.70
2023-01-29T00:29:00.665Z,54.90
2023-01-29T00:31:27.731Z,54.80
2023-01-29T00:33:54.770Z,54.50
2023-01-29T00:36:22.880Z,54.50
2023-01-29T00:39:02.762Z,54.60
2023-01-29T00:41:51.225Z,54.60
2023-01-29T00:44:37.315Z,54.90
2023-01-29T00:47:25.579Z,54.90
2023-01-29T00:49:52.476Z,54.50
2023-01-29T00:52:25.314Z,54.90
2023-01-29T00:54:53.583Z,54.80
2023-01-29T00:57:20.558Z,54.70
2023-01-29T00:59:47.424Z,55.00
2023-01-29T01:02:33.029Z,54.90
2023-01-29T01:04:59.867Z,55.20
2023-01-29T01:07:26.636Z,54.80
2023-01-29T01:10:12.259Z,54.90
2023-01-29T01:12:39.076Z,54.70
2023-01-29T01:15:06.387Z,55.00
2023-01-29T01:17:33.330Z,55.00
2023-01-29T01:20:00.093Z,54.80
2023-01-29T01:22:27.415Z,55.90
2023-01-29T01:24:54.271Z,55.50
2023-01-29T01:27:21.079Z,56.00
2023-01-29T01:29:47.969Z,55.80
2023-01-29T01:32:15.965Z,55.90
2023-01-29T01:34:45.150Z,55.80
2023-01-29T01:37:12.111Z,55.80
2023-01-29T01:39:38.952Z,55.50
2023-01-29T01:42:11.628Z,55.20
2023-01-29T01:45:01.459Z,55.00
2023-01-29T01:47:34.644Z,54.90
2023-01-29T01:50:11.807Z,55.70
2023-01-29T01:52:43.339Z,55.40
2023-01-29T01:55:13.484Z,55.60
2023-01-29T01:57:43.660Z,55.50
2023-01-29T02:00:14.209Z,55.10
2023-01-29T02:03:03.548Z,55.40
2023-01-29T02:05:52.352Z,55.70
2023-01-29T02:08:50.732Z,55.00
2023-01-29T02:11:18.081Z,55.00
2023-01-29T02:13:45.255Z,56.00
2023-01-29T02:16:12.178Z,55.40
2023-01-29T02:18:39.503Z,55.10
2023-01-29T02:21:25.406Z,55.10
2023-01-29T02:24:31.189Z,55.30
2023-01-29T02:27:15.403Z,55.70
2023-01-29T02:30:23.004Z,55.60
2023-01-29T02:33:21.438Z,55.70
2023-01-29T02:36:18.467Z,55.60
2023-01-29T02:38:55.832Z,55.50
2023-01-29T02:41:30.159Z,55.80
2023-01-29T02:44:08.094Z,55.40
2023-01-29T02:46:43.470Z,55.90
2023-01-29T02:49:33.536Z,55.50
2023-01-29T02:52:17.051Z,55.80
2023-01-29T02:54:55.731Z,55.50
2023-01-29T02:57:29.295Z,55.40
2023-01-29T02:59:58.789Z,55.60
2023-01-29T03:02:34.059Z,55.70
2023-01-29T03:05:04.459Z,55.80
2023-01-29T03:07:42.629Z,55.90
2023-01-29T03:10:51.172Z,55.60
2023-01-29T03:13:29.248Z,55.20
2023-01-29T03:16:03.025Z,55.70
2023-01-29T03:18:36.851Z,55.40
2023-01-29T03:21:28.887Z,55.60
2023-01-29T03:24:16.535Z,55.70
2023-01-29T03:27:02.675Z,55.40
2023-01-29T03:29:53.104Z,55.50
2023-01-29T03:32:22.912Z,54.60
2023-01-29T03:34:56.195Z,54.50
2023-01-29T03:37:59.449Z,54.80
2023-01-29T03:40:28.012Z,54.70
2023-01-29T03:43:18.978Z,54.70
2023-01-29T03:45:51.547Z,54.70
2023-01-29T03:48:38.736Z,54.60
2023-01-29T03:51:27.353Z,54.70
2023-01-29T03:54:04.327Z,54.50
2023-01-29T03:56:54.350Z,54.90
2023-01-29T03:59:30.023Z,54.50
2023-01-29T04:02:01.556Z,54.90
2023-01-29T04:04:32.025Z,54.90
2023-01-29T04:07:08.237Z,54.40
2023-01-29T04:09:42.568Z,54.30
2023-01-29T04:12:11.555Z,54.90
2023-01-29T04:14:39.292Z,54.50
2023-01-29T04:17:18.772Z,54.20
2023-01-29T04:19:45.678Z,54.20
2023-01-29T04:22:19.046Z,54.10
2023-01-29T04:24:47.900Z,54.30
2023-01-29T04:27:43.397Z,54.50
2023-01-29T04:30:40.629Z,54.10
2023-01-29T04:33:28.993Z,54.00
2023-01-29T04:36:32.372Z,53.80
2023-01-29T04:39:18.794Z,53.50
2023-01-29T04:42:23.181Z,53.80
2023-01-29T04:45:12.450Z,53.30
2023-01-29T04:47:45.150Z,53.70
2023-01-29T04:50:38.165Z,53.60
2023-01-29T04:53:17.896Z,53.40
2023-01-29T04:55:53.326Z,53.70
2023-01-29T04:58:25.714Z,53.80
2023-01-29T05:00:54.868Z,53.50
2023-01-29T05:03:25.807Z,53.90
2023-01-29T05:05:55.780Z,53.70
2023-01-29T05:08:26.031Z,53.40
2023-01-29T05:10:54.815Z,53.10
2023-01-29T05:13:23.426Z,53.00
2023-01-29T05:16:02.276Z,53.10
2023-01-29T05:18:30.639Z,53.60
2023-01-29T05:20:59.114Z,53.70
2023-01-29T05:23:25.968Z,53.10
2023-01-29T05:25:52.946Z,53.50
2023-01-29T05:28:20.043Z,53.50
2023-01-29T05:30:49.139Z,53.40
2023-01-29T05:33:21.986Z,53.80
2023-01-29T05:35:49.446Z,54.10
2023-01-29T05:38:17.562Z,53.90
2023-01-29T05:40:44.981Z,53.10
2023-01-29T05:43:19.591Z,52.80
2023-01-29T05:46:01.895Z,53.10
2023-01-29T05:48:29.740Z,53.00
2023-01-29T05:51:04.226Z,52.80
2023-01-29T05:53:31.945Z,53.10
2023-01-29T05:56:01.944Z,52.80
2023-01-29T05:58:30.808Z,52.80
2023-01-29T06:00:57.993Z,52.60
2023-01-29T06:03:25.080Z,52.60
2023-01-29T06:05:51.844Z,52.50
2023-01-29T06:08:18.636Z,52.90
2023-01-29T06:10:45.459Z,52.90
2023-01-29T06:13:12.275Z,52.50
2023-01-29T06:15:40.934Z,52.60
2023-01-29T06:18:07.806Z,53.10
2023-01-29T06:20:34.648Z,53.20
2023-01-29T06:23:01.464Z,53.80
2023-01-29T06:25:28.278Z,53.50
2023-01-29T06:27:56.230Z,54.00
2023-01-29T06:30:24.556Z,53.60
2023-01-29T06:32:51.426Z,53.20
2023-01-29T06:35:18.200Z,53.50
2023-01-29T06:37:45.014Z,53.50
2023-01-29T06:40:12.334Z,53.10
2023-01-29T06:42:39.107Z,53.40
2023-01-29T06:45:06.367Z,53.20
2023-01-29T06:47:33.265Z,53.50
2023-01-29T06:50:00.258Z,53.50
2023-01-29T06:52:29.053Z,53.30
2023-01-29T06:54:56.703Z,53.40
2023-01-29T06:57:23.801Z,53.90
2023-01-29T06:59:50.566Z,53.90
2023-01-29T07:02:18.033Z,53.60
2023-01-29T07:04:44.911Z,53.80
2023-01-29T07:07:13.389Z,53.90
2023-01-29T07:09:41.565Z,53.30
2023-01-29T07:12:09.813Z,53.50
2023-01-29T07:14:36.684Z,54.10
2023-01-29T07:17:04.007Z,53.00
2023-01-29T07:19:30.863Z,52.90
2023-01-29T07:21:57.719Z,53.30
2023-01-29T07:24:24.949Z,53.00
2023-01-29T07:26:52.839Z,52.70
2023-01-29T07:29:19.616Z,52.60
2023-01-29T07:31:46.445Z,52.50
2023-01-29T07:34:13.286Z,52.40
2023-01-29T07:36:40.155Z,52.80
2023-01-29T07:39:06.868Z,52.00
2023-01-29T07:41:33.701Z,51.90
2023-01-29T07:44:00.495Z,52.10
2023-01-29T07:46:27.329Z,51.70
2023-01-29T07:48:54.232Z,52.00
2023-01-29T07:51:21.478Z,52.30
2023-01-29T07:53:48.727Z,52.30
2023-01-29T07:56:15.630Z,52.20
2023-01-29T07:58:42.542Z,51.80
2023-01-29T08:01:09.547Z,52.10
2023-01-29T08:03:36.743Z,51.70
2023-01-29T08:06:04.604Z,51.60
2023-01-29T08:08:31.698Z,51.20
2023-01-29T08:11:02.642Z,50.80
2023-01-29T08:13:29.774Z,51.10
2023-01-29T08:16:01.178Z,51.00
2023-01-29T08:18:28.387Z,50.80
2023-01-29T08:21:01.101Z,50.80
2023-01-29T08:23:28.113Z,50.50
2023-01-29T08:25:55.138Z,50.30
2023-01-29T08:28:22.234Z,50.30
2023-01-29T08:30:49.101Z,50.40
2023-01-29T08:33:17.574Z,50.10
2023-01-29T08:35:50.641Z,50.00
2023-01-29T08:38:17.882Z,49.50
2023-01-29T08:40:44.723Z,49.50
2023-01-29T08:43:13.602Z,49.10
2023-01-29T08:45:42.385Z,49.00
2023-01-29T08:48:11.160Z,48.40
2023-01-29T08:50:38.985Z,48.50
2023-01-29T08:53:08.235Z,48.40
2023-01-29T08:55:41.471Z,48.00
2023-01-29T08:58:11.516Z,47.80
2023-01-29T09:00:38.795Z,48.00
2023-01-29T09:03:07.857Z,47.80
2023-01-29T09:05:37.335Z,46.90
2023-01-29T09:08:05.573Z,46.70
2023-01-29T09:10:32.404Z,46.90
2023-01-29T09:12:59.294Z,47.10
2023-01-29T09:15:26.216Z,46.90
2023-01-29T09:17:53.227Z,46.20
2023-01-29T09:20:20.431Z,46.60
2023-01-29T09:22:47.700Z,46.60
2023-01-29T09:25:15.297Z,46.90
2023-01-29T09:27:42.330Z,46.20
2023-01-29T09:30:09.901Z,45.30
2023-01-29T09:32:53.344Z,44.90
2023-01-29T09:35:22.034Z,44.90
2023-01-29T09:37:49.957Z,44.20
2023-01-29T09:40:26.861Z,44.30
2023-01-29T09:43:20.279Z,44.40
2023-01-29T09:46:19.566Z,44.70
2023-01-29T09:48:48.120Z,46.90
2023-01-29T09:51:31.573Z,45.90
2023-01-29T09:54:10.842Z,46.20
2023-01-29T09:56:37.737Z,45.50
2023-01-29T09:59:04.789Z,45.20
2023-01-29T10:01:40.698Z,44.40
2023-01-29T10:04:16.331Z,43.70
2023-01-29T10:06:58.579Z,43.00
2023-01-29T10:09:43.286Z,42.40
2023-01-29T10:12:22.514Z,42.40
2023-01-29T10:14:52.407Z,42.40
2023-01-29T10:17:28.085Z,42.70
2023-01-29T10:20:15.936Z,43.00
2023-01-29T10:22:54.702Z,43.30
2023-01-29T10:25:23.048Z,44.00
2023-01-29T10:27:57.167Z,43.70
2023-01-29T10:30:29.840Z,43.10
2023-01-29T10:33:02.595Z,42.70
2023-01-29T10:35:50.127Z,43.00
2023-01-29T10:38:52.774Z,42.60
2023-01-29T10:41:34.388Z,42.70
2023-01-29T10:44:25.326Z,43.00
2023-01-29T10:47:16.458Z,42.90
2023-01-29T10:49:56.840Z,42.20
2023-01-29T10:52:50.834Z,42.00
2023-01-29T10:55:35.042Z,42.30
2023-01-29T10:58:15.260Z,42.60
2023-01-29T11:00:42.757Z,42.40
2023-01-29T11:03:30.380Z,42.30
2023-01-29T11:06:08.021Z,41.90
2023-01-29T11:08:40.572Z,42.30
2023-01-29T11:11:14.856Z,42.20
2023-01-29T11:14:07.142Z,41.90
2023-01-29T11:16:43.107Z,42.50
2023-01-29T11:19:10.561Z,42.10
2023-01-29T11:21:57.800Z,41.80
2023-01-29T11:24:25.472Z,41.90
2023-01-29T11:26:55.192Z,42.30
2023-01-29T11:29:37.228Z,42.80
2023-01-29T11:32:13.114Z,42.20
2023-01-29T11:35:19.365Z,41.90
2023-01-29T11:37:47.134Z,41.80
2023-01-29T11:40:20.662Z,41.60
2023-01-29T11:42:48.120Z,41.10
2023-01-29T11:45:32.347Z,41.40
2023-01-29T11:48:00.649Z,41.90
2023-01-29T11:50:33.487Z,41.40
2023-01-29T11:53:01.515Z,41.60
2023-01-29T11:55:48.574Z,41.70
2023-01-29T11:58:22.899Z,41.50
2023-01-29T12:00:51.469Z,41.10
2023-01-29T12:03:53.909Z,41.50
2023-01-29T12:06:24.211Z,41.30
2023-01-29T12:09:02.446Z,41.40
2023-01-29T12:11:34.327Z,41.30
2023-01-29T12:14:03.977Z,41.10
2023-01-29T12:16:40.164Z,41.00
2023-01-29T12:19:31.521Z,40.80
2023-01-29T12:22:04.508Z,40.50
2023-01-29T12:24:34.132Z,40.40
2023-01-29T12:27:28.633Z,40.40
2023-01-29T12:30:22.275Z,40.50
2023-01-29T12:32:56.985Z,40.50
2023-01-29T12:35:30.545Z,41.20
2023-01-29T12:38:20.339Z,40.60
2023-01-29T12:40:51.530Z,40.20
2023-01-29T12:43:26.311Z,40.70
2023-01-29T12:45:55.618Z,40.60
2023-01-29T12:48:34.096Z,40.00
2023-01-29T12:51:14.233Z,40.30
2023-01-29T12:53:48.033Z,40.60
2023-01-29T12:56:38.899Z,40.90
2023-01-29T12:59:18.950Z,40.80
2023-01-29T13:01:55.021Z,41.00
2023-01-29T13:04:28.026Z,40.80
2023-01-29T13:07:03.029Z,41.10
2023-01-29T13:09:33.355Z,40.00
2023-01-29T13:12:07.195Z,40.30
2023-01-29T13:14:52.876Z,40.60
2023-01-29T13:17:46.585Z,41.00
2023-01-29T13:20:16.051Z,41.00
2023-01-29T13:22:44.184Z,41.30
2023-01-29T13:25:17.226Z,40.80
2023-01-29T13:27:47.601Z,41.00
2023-01-29T13:30:31.018Z,41.10
2023-01-29T13:33:09.711Z,41.20
2023-01-29T13:35:40.582Z,41.20
2023-01-29T13:38:23.813Z,41.20
2023-01-29T13:40:51.572Z,40.20
2023-01-29T13:43:23.481Z,40.00
2023-01-29T13:45:52.926Z,40.00
2023-01-29T13:48:28.978Z,40.10
2023-01-29T13:50:59.848Z,39.80
2023-01-29T13:53:36.893Z,39.80
2023-01-29T13:56:28.785Z,40.50
2023-01-29T13:58:57.218Z,40.30
2023-01-29T14:01:46.912Z,40.30
2023-01-29T14:04:19.593Z,40.90
2023-01-29T14:06:52.585Z,40.40
2023-01-29T14:09:38.559Z,40.70
2023-01-29T14:12:25.411Z,39.90
2023-01-29T14:15:04.354Z,39.80
2023-01-29T14:17:31.396Z,39.50
2023-01-29T14:20:19.781Z,39.40
2023-01-29T14:22:55.731Z,40.00
2023-01-29T14:25:29.589Z,40.00
2023-01-29T14:27:58.883Z,39.90
2023-01-29T14:30:30.225Z,40.40
2023-01-29T14:32:57.732Z,39.60
2023-01-29T14:35:27.469Z,40.30
2023-01-29T14:37:59.464Z,41.80
2023-01-29T14:40:29.795Z,40.70
2023-01-29T14:42:56.611Z,41.00
2023-01-29T14:45:23.591Z,40.70
2023-01-29T14:47:50.395Z,40.90
2023-01-29T14:50:29.306Z,40.90
2023-01-29T14:53:00.549Z,40.20
2023-01-29T14:55:27.311Z,40.10
2023-01-29T14:57:56.808Z,40.30
2023-01-29T15:00:29.632Z,39.60
2023-01-29T15:03:02.038Z,40.10
2023-01-29T15:05:32.626Z,40.10
2023-01-29T15:08:23.955Z,40.30
2023-01-29T15:11:14.441Z,40.20
2023-01-29T15:14:06.653Z,40.40
2023-01-29T15:16:52.234Z,40.00
2023-01-29T15:19:27.169Z,40.50
2023-01-29T15:22:16.459Z,40.70
2023-01-29T15:24:45.571Z,40.60
2023-01-29T15:27:20.223Z,40.80
2023-01-29T15:30:08.157Z,41.70
2023-01-29T15:32:39.947Z,41.10
2023-01-29T15:35:33.777Z,41.10
2023-01-29T15:38:16.678Z,40.70
2023-01-29T15:40:56.728Z,41.00
2023-01-29T15:43:25.058Z,41.30
2023-01-29T15:45:55.511Z,41.10
2023-01-29T15:48:34.942Z,41.50
2023-01-29T15:51:04.833Z,41.70
2023-01-29T15:53:37.336Z,41.70
2023-01-29T15:56:12.176Z,41.60
2023-01-29T15:58:40.095Z,42.50
2023-01-29T16:01:07.201Z,42.00
2023-01-29T16:03:36.207Z,41.90
2023-01-29T16:06:03.452Z,41.70
2023-01-29T16:08:30.819Z,42.20
2023-01-29T16:11:00.630Z,42.30
2023-01-29T16:13:34.651Z,42.30
2023-01-29T16:16:04.280Z,42.70
2023-01-29T16:18:36.292Z,42.20
2023-01-29T16:21:12.783Z,43.70
2023-01-29T16:23:48.292Z,43.00
2023-01-29T16:26:21.796Z,43.10
2023-01-29T16:28:48.820Z,42.70
2023-01-29T16:31:23.798Z,42.80
2023-01-29T16:33:51.024Z,43.20
2023-01-29T16:36:20.488Z,43.40
2023-01-29T16:39:02.870Z,43.20
2023-01-29T16:41:40.227Z,43.50
2023-01-29T16:44:16.347Z,44.10
2023-01-29T16:46:48.006Z,44.30
2023-01-29T16:49:40.906Z,44.40
2023-01-29T16:52:29.841Z,44.00
2023-01-29T16:55:20.375Z,44.10
2023-01-29T16:57:56.516Z,44.30
2023-01-29T17:00:31.188Z,44.00
2023-01-29T17:03:05.575Z,44.20
2023-01-29T17:05:35.666Z,44.00
2023-01-29T17:08:04.077Z,44.60
2023-01-29T17:10:32.409Z,44.60
2023-01-29T17:13:17.652Z,45.10
2023-01-29T17:15:47.833Z,45.00
2023-01-29T17:18:22.163Z,44.90
2023-01-29T17:20:53.136Z,45.20
2023-01-29T17:23:20.492Z,44.90
2023-01-29T17:25:49.704Z,45.10
2023-01-29T17:28:17.799Z,45.30
2023-01-29T17:30:53.339Z,45.20
2023-01-29T17:33:26.005Z,45.50
2023-01-29T17:35:53.130Z,45.00
2023-01-29T17:38:26.330Z,45.30
2023-01-29T17:41:11.922Z,45.50
2023-01-29T17:43:38.859Z,45.90
2023-01-29T17:46:06.778Z,46.10
2023-01-29T17:48:33.764Z,46.30
2023-01-29T17:51:04.607Z,46.40
2023-01-29T17:53:45.236Z,46.60
2023-01-29T17:56:18.073Z,45.80
2023-01-29T17:58:44.856Z,45.90
2023-01-29T18:01:12.528Z,46.20
2023-01-29T18:03:39.357Z,46.10
2023-01-29T18:06:10.971Z,46.10
2023-01-29T18:08:39.623Z,46.20
2023-01-29T18:11:06.740Z,46.40
2023-01-29T18:13:36.155Z,46.60
2023-01-29T18:16:03.166Z,47.40
2023-01-29T18:18:30.146Z,47.20
2023-01-29T18:20:56.951Z,46.80
2023-01-29T18:23:23.767Z,47.10
2023-01-29T18:25:50.542Z,47.30
2023-01-29T18:28:18.083Z,47.50
2023-01-29T18:30:47.488Z,47.10
2023-01-29T18:33:16.178Z,47.20
2023-01-29T18:35:48.268Z,47.10
2023-01-29T18:38:15.192Z,46.90
2023-01-29T18:40:42.207Z,47.20
2023-01-29T18:43:09.351Z,47.20
2023-01-29T18:45:36.246Z,47.20
2023-01-29T18:48:03.763Z,47.20
2023-01-29T18:50:30.641Z,47.30
2023-01-29T18:52:57.704Z,47.40
2023-01-29T18:55:26.563Z,47.30
2023-01-29T18:58:26.785Z,47.50
2023-01-29T19:00:41.099Z,47.50
2023-01-29T19:03:07.927Z,47.60
2023-01-29T19:05:34.865Z,48.00
2023-01-29T19:08:01.954Z,47.80
2023-01-29T19:10:28.875Z,47.70
2023-01-29T19:12:55.665Z,48.00
2023-01-29T19:15:22.996Z,48.40
2023-01-29T19:17:53.114Z,48.60
2023-01-29T19:20:20.129Z,48.60
2023-01-29T19:22:47.146Z,48.50
2023-01-29T19:25:14.422Z,48.60
2023-01-29T19:27:41.259Z,49.00
2023-01-29T19:30:08.857Z,48.90
2023-01-29T19:32:35.695Z,49.00
2023-01-29T19:35:02.664Z,49.00
2023-01-29T19:37:30.977Z,49.30
2023-01-29T19:39:57.957Z,49.30
2023-01-29T19:42:24.838Z,48.90
2023-01-29T19:44:53.438Z,48.80
2023-01-29T19:47:21.092Z,48.80
2023-01-29T19:49:48.112Z,48.90
2023-01-29T19:52:35.902Z,49.50
2023-01-29T19:55:08.857Z,49.10
2023-01-29T19:57:35.677Z,49.00
2023-01-29T20:00:04.235Z,49.70
2023-01-29T20:02:32.505Z,49.80
2023-01-29T20:05:01.211Z,49.70
2023-01-29T20:07:28.178Z,49.40
2023-01-29T20:09:54.999Z,49.50
2023-01-29T20:12:21.919Z,49.50
2023-01-29T20:14:49.096Z,50.60
2023-01-29T20:17:17.024Z,50.00
2023-01-29T20:19:45.150Z,49.80
2023-01-29T20:22:13.241Z,49.80
2023-01-29T20:24:42.539Z,50.60
2023-01-29T20:27:10.781Z,51.00
2023-01-29T20:29:38.407Z,50.40
2023-01-29T20:32:07.947Z,50.00
2023-01-29T20:34:35.976Z,50.40
2023-01-29T20:37:02.911Z,50.30
2023-01-29T20:39:30.000Z,50.50
2023-01-29T20:41:57.412Z,50.30
2023-01-29T20:44:25.341Z,50.00
2023-01-29T20:46:52.618Z,49.80
2023-01-29T20:49:20.069Z,50.20
2023-01-29T20:51:46.968Z,50.20
2023-01-29T20:54:15.425Z,50.20
2023-01-29T20:56:44.641Z,49.90
2023-01-29T20:59:12.318Z,50.00
2023-01-29T21:01:39.357Z,50.00
2023-01-29T21:04:06.275Z,50.40
2023-01-29T21:06:33.227Z,50.60
2023-01-29T21:09:00.146Z,50.90
2023-01-29T21:11:27.168Z,50.60
2023-01-29T21:13:57.673Z,50.60
2023-01-29T21:16:28.915Z,51.00
2023-01-29T21:18:57.397Z,51.20
2023-01-29T21:21:24.500Z,51.60
2023-01-29T21:23:51.393Z,51.40
2023-01-29T21:26:18.999Z,51.80
2023-01-29T21:28:46.500Z,51.90
2023-01-29T21:31:15.070Z,51.70
2023-01-29T21:33:42.368Z,52.30
2023-01-29T21:36:10.325Z,52.40
2023-01-29T21:38:37.204Z,52.60
2023-01-29T21:41:06.576Z,53.00
2023-01-29T21:43:33.822Z,53.10
2023-01-29T21:46:05.060Z,52.90
2023-01-29T21:48:32.226Z,52.90
2023-01-29T21:50:59.117Z,53.20
2023-01-29T21:53:25.900Z,52.70
2023-01-29T21:55:58.724Z,52.90
2023-01-29T21:58:25.476Z,53.10
2023-01-29T22:00:52.295Z,53.00
2023-01-29T22:03:19.164Z,53.00
2023-01-29T22:05:46.004Z,53.20
2023-01-29T22:08:12.769Z,53.00
2023-01-29T22:10:39.643Z,53.20
2023-01-29T22:13:06.622Z,52.90
2023-01-29T22:15:33.601Z,53.60
2023-01-29T22:18:00.463Z,53.60
2023-01-29T22:20:30.730Z,53.30
2023-01-29T22:22:59.424Z,53.30
2023-01-29T22:25:27.096Z,52.90
2023-01-29T22:27:54.029Z,53.10
2023-01-29T22:30:23.231Z,53.40
2023-01-29T22:32:50.588Z,53.60
2023-01-29T22:35:17.650Z,53.10
2023-01-29T22:37:45.180Z,53.40
2023-01-29T22:40:12.962Z,53.40
2023-01-29T22:42:39.856Z,53.40
2023-01-29T22:45:08.113Z,53.30
2023-01-29T22:47:35.139Z,53.20
2023-01-29T22:50:02.045Z,53.40
2023-01-29T22:52:38.308Z,53.80
2023-01-29T22:55:07.866Z,53.70
2023-01-29T22:57:34.844Z,53.80
2023-01-29T23:00:09.094Z,53.30
2023-01-29T23:02:36.055Z,53.30
2023-01-29T23:05:04.293Z,53.90
2023-01-29T23:07:31.133Z,53.30
2023-01-29T23:09:58.019Z,53.30
2023-01-29T23:12:24.975Z,53.10
2023-01-29T23:14:51.817Z,53.40
2023-01-29T23:17:18.672Z,53.80
2023-01-29T23:19:45.619Z,53.50
2023-01-29T23:22:12.525Z,54.10
2023-01-29T23:24:39.356Z,54.20
2023-01-29T23:27:14.933Z,54.00
2023-01-29T23:29:45.992Z,53.90
2023-01-29T23:32:18.780Z,54.20
2023-01-29T23:34:45.727Z,54.30
2023-01-29T23:37:12.777Z,54.20
2023-01-29T23:39:39.693Z,54.40
2023-01-29T23:42:06.499Z,54.70
2023-01-29T23:44:33.324Z,54.80
2023-01-29T23:47:00.211Z,54.90
2023-01-29T23:49:27.243Z,55.10
2023-01-29T23:51:54.120Z,55.30
2023-01-29T23:54:20.941Z,55.80
2023-01-29T23:56:48.013Z,55.30
2023-01-29T23:59:15.212Z,55.20
